Augsburg, Illinois
Current Conditions -  °F | °C
As of 7:15 PM on Friday 19 Dec 2014 (Local Time) from KSLO Reporting Station
Clear Clear  
Wind Chill: 35°   Ceiling: Unl
Heat Index: 35°   Visibility: 10mi
Dew Point: 26°   Wind: 3mph
Humidity: 71%   Direction: 60°ENE
Pressure: 30.27"   Gusts: NA
Location:  38.8463°N, 89.0894°W
Report Text: KSLO 200115Z AUTO 06003KT 10SM CLR 02/M03 A3027 RMK AO2 T00151033
Loading
Personal Weather Stations






























Interactive Weather Map New forecast layout! Learn more

10-Day Weather Forecast

Advertisements
Track Severe Weather on mobile